Flight Track Log - Related Links

Times and Time Zones

All times are in EDT time to prevent confusion due to time zone crossing. See the ASH3751 flight status page for this flight to view local times or setup timezone preferences in your user account.

Time Position Orientation Groundspeed Altitude Reporting Facility
EDT Latitude Longitude Course Direction KTS MPH feet Rate Location/Type
Wed 12:49:01 AM 42.0000 -87.9500 81° East 177 204 2,100  Level Chicago TRACON
Wed 12:50:01 AM 42.0500 -87.9833 334° Northwest 235 270 4,600 2,354 Climbing Chicago TRACON
Wed 12:51:39 AM 42.1033 -87.8553 61° Northeast 263 303 8,300 2,453 Climbing Chicago Center
Wed 12:52:40 AM 42.1269 -87.7522 73° East 283 326 11,100 1,983 Climbing Chicago Center
Wed 12:53:40 AM 42.1542 -87.6297 73° East 336 387 12,300 1,686 Climbing Chicago Center
Wed 12:54:00 AM 42.2740 -85.1091 81° East  Level Estimated
Wed 12:54:41 AM 42.1914 -87.4631 73° East 385 443 14,500  Level Chicago Center
Wed 12:55:41 AM 42.2064 -87.3133 82° East 406 467 15,000 248 Climbing Chicago Center
Wed 12:56:42 AM 42.2139 -87.1558 86° East 420 483 15,000 148 Level Chicago Center
Wed 12:57:43 AM 42.2200 -86.9983 87° East 420 483 15,300 1,131 Climbing Chicago Center
Wed 12:58:44 AM 42.2253 -86.8403 87° East 423 487 17,300 1,967 Climbing Chicago Center
Wed 12:59:45 AM 42.2311 -86.6708 87° East 428 493 19,300 1,835 Climbing Chicago Center
Wed 01:00:45 AM 42.2358 -86.5333 87° East 431 496 21,000 1,884 Climbing Chicago Center
Wed 01:01:46 AM 42.2417 -86.3717 87° East 431 496 23,100 1,820 Climbing Chicago Center
Wed 01:02:47 AM 42.2461 -86.2106 88° East 430 495 24,700 1,587 Climbing Chicago Center
Wed 01:03:47 AM 42.2508 -86.0444 88° East 439 505 26,300 1,400 Climbing Chicago Center
Wed 01:04:47 AM 42.2558 -85.8592 88° East 442 509 27,500 1,091 Climbing Chicago Center
Wed 01:05:48 AM 42.2608 -85.6858 88° East 461 531 28,500 992 Climbing Chicago Center
Wed 01:06:48 AM 42.2650 -85.5086 88° East 473 544 29,500 992 Climbing Chicago Center
Wed 01:07:49 AM 42.2708 -85.3256 87° East 487 560 30,500 992 Climbing Chicago Center
Wed 01:08:49 AM 42.2744 -85.1439 88° East 488 562 31,500 1,041 Climbing Chicago Center
Wed 01:09:50 AM 42.2783 -84.9633 88° East 486 559 32,600 992 Climbing Chicago Center
Wed 01:10:50 AM 42.2822 -84.7806 88° East 489 563 33,500 843 Climbing Chicago Center
Wed 01:11:51 AM 42.2900 -84.5958 87° East 497 572 34,300 843 Climbing Chicago Center
Wed 01:12:51 AM 42.3067 -84.4100 83° East 501 577 35,200 850 Climbing Chicago Center
Wed 01:13:51 AM 42.3228 -84.2225 83° East 505 581 36,000 793 Climbing Chicago Center
Wed 01:14:52 AM 42.3389 -84.0336 83° East 506 582 36,800 694 Climbing Chicago Center
Wed 01:15:52 AM 42.3561 -83.8431 83° East 512 589 37,400 734 Climbing Chicago Center
Wed 01:17:11 AM 42.3778 -83.5628 84° East 510 587 38,500 691 Climbing Cleveland Center
Wed 01:18:11 AM 42.3908 -83.3778 84° East 510 587 39,000 252 Climbing Cleveland Center
Wed 01:19:10 AM 42.4075 -83.2014 83° East 510 587 39,000  Level Cleveland Center
Wed 01:20:10 AM 42.4200 -83.0078 85° East 515 593 39,000  Level Cleveland Center
Wed 01:21:10 AM 42.4344 -82.8169 84° East 515 593 39,000  Level Cleveland Center
Wed 01:22:10 AM 42.4483 -82.6206 84° East 515 593 39,000  Level Cleveland Center
Wed 01:23:10 AM 42.4622 -82.4239 84° East 515 593 39,000  Level Cleveland Center
Wed 01:24:10 AM 42.4775 -82.2272 84° East 515 593 39,000  Level Cleveland Center
Wed 01:25:10 AM 42.4906 -82.0306 85° East 515 593 39,000  Level Cleveland Center
Wed 01:26:10 AM 42.5033 -81.8336 85° East 515 593 39,000  Level Cleveland Center
Wed 01:27:10 AM 42.5200 -81.6228 84° East 515 593 39,000  Level Cleveland Center
Wed 01:28:10 AM 42.5300 -81.4228 86° East 515 593 39,000  Level Cleveland Center
Wed 01:29:10 AM 42.5458 -81.2342 83° East 515 593 39,000  Level Cleveland Center
Wed 01:30:10 AM 42.5553 -81.0397 86° East 514 592 39,000  Level Cleveland Center
Wed 01:31:10 AM 42.5642 -80.8622 86° East 519 597 39,000  Level Cleveland Center
Wed 01:32:10 AM 42.5769 -80.6678 85° East 519 597 39,000  Level Cleveland Center
Wed 01:33:10 AM 42.5853 -80.4731 87° East 519 597 39,000  Level Cleveland Center
Wed 01:34:10 AM 42.5975 -80.2786 85° East 513 590 39,000  Level Cleveland Center
Wed 01:35:10 AM 42.6072 -80.0839 86° East 518 596 39,000  Level Cleveland Center
Wed 01:36:10 AM 42.6186 -79.8667 86° East 518 596 39,000  Level Cleveland Center
Wed 01:37:10 AM 42.6297 -79.6689 86° East 518 596 39,000  Level Cleveland Center
Wed 01:38:10 AM 42.6383 -79.4739 86° East 518 596 39,000  Level Cleveland Center
Wed 01:39:10 AM 42.6486 -79.2764 86° East 518 596 39,000  Level Cleveland Center
Wed 01:40:10 AM 42.6547 -79.0786 88° East 518 596 39,000  Level Cleveland Center
Wed 01:41:10 AM 42.6625 -78.8836 87° East 518 596 39,000  Level Cleveland Center
Wed 01:42:10 AM 42.6697 -78.6856 87° East 518 596 39,000  Level Cleveland Center
Wed 01:43:10 AM 42.6767 -78.4906 87° East 518 596 39,000  Level Cleveland Center
Wed 01:44:10 AM 42.6833 -78.2925 87° East 518 596 39,000  Level Cleveland Center
Wed 01:45:10 AM 42.6897 -78.0917 87° East 518 596 39,000  Level Cleveland Center
Wed 01:46:10 AM 42.6964 -77.9192 87° East 518 596 39,000 -300 Level Cleveland Center
Wed 01:47:10 AM 42.7014 -77.7014 88° East 518 596 38,400 -1,000 Descending Cleveland Center
Wed 01:48:10 AM 42.7067 -77.5006 88° East 518 596 37,000 -1,111 Descending Cleveland Center
Wed 01:50:19 AM 42.7189 -77.0700 88° East 519 597 34,900 -984 Descending Boston Center
Wed 01:51:19 AM 42.7228 -76.8667 88° East 524 603 33,900 -1,000 Descending Boston Center
Wed 01:52:19 AM 42.7283 -76.6633 88° East 534 615 32,900 -1,200 Descending Boston Center
Wed 01:53:19 AM 42.7317 -76.4600 89° East 534 615 31,500 -1,700 Descending Boston Center
Wed 01:54:19 AM 42.7344 -76.2594 89° East 534 615 29,500 -1,950 Descending Boston Center
Wed 01:55:19 AM 42.7400 -76.0900 87° East 517 595 27,600 -1,900 Descending Boston Center
Wed 01:56:19 AM 42.7411 -75.9178 89° East 480 552 25,700 -1,850 Descending Boston Center
Wed 01:57:19 AM 42.7419 -75.7508 90° East 449 517 23,900 -1,800 Descending Boston Center
Wed 01:58:19 AM 42.7444 -75.5925 89° East 428 493 22,100 -1,800 Descending Boston Center
Wed 01:59:19 AM 42.7464 -75.4372 89° East 413 475 20,300 -1,800 Descending Boston Center
Wed 02:00:19 AM 42.7464 -75.2817 90° East 408 470 18,500 -1,750 Descending Boston Center
Wed 02:01:19 AM 42.7500 -75.1292 88° East 403 464 16,800 -1,750 Descending Boston Center
Wed 02:02:19 AM 42.7492 -74.9819 90° East 398 458 15,000 -2,000 Descending Boston Center
Wed 02:03:19 AM 42.7506 -74.8236 89° East 387 445 12,800 -1,900 Descending Boston Center
Wed 02:04:19 AM 42.7494 -74.6794 91° East 376 433 11,200 -1,000 Descending Boston Center
Wed 02:05:07 AM 42.7514 -74.5719 89° East 358 412 11,000 -316 Descending Boston Center
Wed 02:06:13 AM 42.7372 -74.4386 98° East 325 374 10,600 -1,087 Descending Boston Center
Wed 02:07:14 AM 42.7056 -74.3331 112° Southeast 290 334 8,700 -1,770 Descending Boston Center
Wed 02:08:15 AM 42.6800 -74.2336 109° East 274 315 7,000 -1,438 Descending Boston Center
Wed 02:09:15 AM 42.6503 -74.1339 112° Southeast 256 295 5,800 -1,091 Descending Boston Center
Wed 02:10:16 AM 42.6286 -74.0542 110° East 227 261 4,800 -893 Descending Boston Center
Wed 02:11:16 AM 42.6067 -73.9831 113° Southeast 203 234 4,000 -942 Descending Boston Center
Wed 02:12:17 AM 42.5972 -73.9181 101° East 170 196 2,900 -984 Descending Boston Center
Wed 02:13:18 AM 42.6000 -73.8533 87° East 163 188 2,000 -446 Descending Boston Center
Wed 02:14:18 AM 42.6358 -73.8144 39° Northeast 154 177 2,000 -99 Level Boston Center
Wed 02:15:19 AM 42.6633 -73.7811 42° Northeast 135 155 1,800 -545 Descending Boston Center
Wed 02:16:19 AM 42.7069 -73.8047 338° Northwest 111 128 900 -900 Descending Boston Center
Wed 02:21:00 AM 42.7333 -73.8000 30° Northeast  Level FlightAware Approximate

Login

Don't have an account? Register now (free) for customized features, flight alerts, and more!